»·PEaware :: ARG1301 KSEA-KPDX

ARG1301 :: KSEA-KPDX

FLIGHT INFORMATION

Flight Status: Arrived
Operator:
Aerolineas Argentinas
More flights by this operator :: More flights under this callsign
Pilot: Luis S. (63)
Aircraft: BOEING 737-800
(B738)
More flights by this aircraft type
Origin: KSEA Seattle-Tacoma Intl
United States
Destination: KPDX Portland Intl
United States
More flights between these airports :: More routes between these airports
Route: +SEA6 BUWZO KRATR KRATR2
File this flight plan on PilotEdge
Remarks:
Altitude:
(Current/Filed)
15,000ft
Speed:
(Current/Filed)
280kts
Departed: 23-Jul-18 10:02 AM
Arrived: 23-Jul-18 10:35 AM
Distance/Time
Traveled:
112nm/0:33
Distance/Time
To Go:
Arrived

Flight Plot

Page will automatically refresh every two minutes.

Flight plan parsing failed; only flown route is shown


Map Options




Map Legend


Flown Route
Filed Route
Departure Airport
Arrival Airport
Navaid (VOR, NDB)
Fix

Horizontal Profiles

Position Reports

Time Latitude Longitude Heading Altitude Ground
Speed
23-Jul-18 09:18 47.444365 -122.305594 269 442ft 0kts
23-Jul-18 09:19 47.444365 -122.305594 269 442ft 0kts
23-Jul-18 09:20 47.444365 -122.305594 269 442ft 0kts
23-Jul-18 09:21 47.444365 -122.305594 269 442ft 0kts
23-Jul-18 09:22 47.444365 -122.305594 269 442ft 0kts
23-Jul-18 09:23 47.444365 -122.305594 269 442ft 0kts
23-Jul-18 09:24 47.444365 -122.305594 269 442ft 0kts
23-Jul-18 09:25 47.444365 -122.305594 269 442ft 0kts
23-Jul-18 09:26 47.444365 -122.305594 269 442ft 0kts
23-Jul-18 09:27 47.444365 -122.305594 269 442ft 0kts
23-Jul-18 09:28 47.444365 -122.305594 269 442ft 0kts
23-Jul-18 09:29 47.444365 -122.305594 269 442ft 0kts
23-Jul-18 09:30 47.444365 -122.305594 269 442ft 0kts
23-Jul-18 09:31 47.444365 -122.305594 269 442ft 0kts
23-Jul-18 09:32 47.444365 -122.305594 269 442ft 0kts
23-Jul-18 09:33 47.444365 -122.305594 269 442ft 0kts
23-Jul-18 09:34 47.444365 -122.305594 269 442ft 0kts
23-Jul-18 09:35 47.444365 -122.305594 269 442ft 0kts
23-Jul-18 09:36 47.444365 -122.305594 269 442ft 0kts
23-Jul-18 09:37 47.444365 -122.305594 269 442ft 0kts
23-Jul-18 09:38 47.444365 -122.305594 269 442ft 0kts
23-Jul-18 09:39 47.444365 -122.305594 269 442ft 0kts
23-Jul-18 09:40 47.444365 -122.305594 269 442ft 0kts
23-Jul-18 09:41 47.444365 -122.305594 269 442ft 0kts
23-Jul-18 09:42 47.444365 -122.305594 269 442ft 0kts
23-Jul-18 09:43 47.444365 -122.305594 269 442ft 0kts
23-Jul-18 09:44 47.444365 -122.305594 269 442ft 0kts
23-Jul-18 09:45 47.444365 -122.305594 269 442ft 0kts
23-Jul-18 09:46 47.444365 -122.305594 269 442ft 0kts
23-Jul-18 09:47 47.444365 -122.305594 269 442ft 0kts
23-Jul-18 09:48 47.444365 -122.305594 269 442ft 0kts
23-Jul-18 09:49 47.444365 -122.305594 269 442ft 0kts
23-Jul-18 09:50 47.444365 -122.305594 269 442ft 0kts
23-Jul-18 09:51 47.444365 -122.305594 269 442ft 0kts
23-Jul-18 09:52 47.444365 -122.305594 269 442ft 0kts
23-Jul-18 09:53 47.444365 -122.305594 269 442ft 0kts
23-Jul-18 09:54 47.444365 -122.305594 269 442ft 0kts
23-Jul-18 09:55 47.444365 -122.305594 269 442ft 0kts
23-Jul-18 09:56 47.444365 -122.305594 269 442ft 0kts
23-Jul-18 09:57 47.447373 -122.306300 0 442ft 26kts
23-Jul-18 09:58 47.454135 -122.306219 0 442ft 20kts
23-Jul-18 09:59 47.459765 -122.306171 0 442ft 22kts
23-Jul-18 10:00 47.463567 -122.306306 326 442ft 0kts
23-Jul-18 10:01 47.463567 -122.306306 326 442ft 0kts
23-Jul-18 10:02 47.463380 -122.307774 180 442ft 8kts
23-Jul-18 10:03 47.439908 -122.307750 179 1127ft 175kts
23-Jul-18 10:04 47.385532 -122.308330 180 3882ft 209kts
23-Jul-18 10:05 47.321548 -122.307042 179 6193ft 246kts
23-Jul-18 10:06 47.252588 -122.303708 179 8932ft 251kts
23-Jul-18 10:07 47.182647 -122.300544 180 11500ft 252kts
23-Jul-18 10:08 47.112940 -122.299541 181 13858ft 253kts
23-Jul-18 10:09 47.037070 -122.297277 179 14921ft 297kts
23-Jul-18 10:10 46.950527 -122.290731 181 15118ft 328kts
23-Jul-18 10:11 46.860214 -122.290454 182 15226ft 329kts
23-Jul-18 10:12 46.768541 -122.301897 188 14987ft 331kts
23-Jul-18 10:13 46.677139 -122.308649 183 14980ft 328kts
23-Jul-18 10:14 46.586274 -122.309812 183 14987ft 328kts
23-Jul-18 10:15 46.494884 -122.309911 182 14994ft 329kts
23-Jul-18 10:16 46.403873 -122.309914 182 15004ft 330kts
23-Jul-18 10:17 46.312006 -122.309943 182 14817ft 330kts
23-Jul-18 10:18 46.223497 -122.320420 201 12816ft 313kts
23-Jul-18 10:19 46.145295 -122.369439 204 10833ft 304kts
23-Jul-18 10:20 46.071733 -122.412585 202 10037ft 260kts
23-Jul-18 10:21 46.007336 -122.447154 202 8861ft 246kts
23-Jul-18 10:22 45.943199 -122.481717 202 7398ft 246kts
23-Jul-18 10:23 45.880010 -122.476597 165 6683ft 219kts
23-Jul-18 10:24 45.822590 -122.454217 168 6688ft 234kts
23-Jul-18 10:25 45.756852 -122.433252 168 6593ft 239kts
23-Jul-18 10:26 45.692094 -122.412720 168 6008ft 233kts
23-Jul-18 10:27 45.628419 -122.392567 167 6022ft 240kts
23-Jul-18 10:28 45.583291 -122.328645 117 5976ft 241kts
23-Jul-18 10:29 45.550444 -122.244697 134 5342ft 232kts
23-Jul-18 10:30 45.499555 -122.257177 253 4880ft 224kts
23-Jul-18 10:31 45.502392 -122.339542 278 3883ft 197kts
23-Jul-18 10:32 45.513654 -122.407736 298 2743ft 156kts
23-Jul-18 10:33 45.539963 -122.452927 305 1857ft 151kts
23-Jul-18 10:34 45.559981 -122.506355 299 1063ft 151kts
23-Jul-18 10:35 45.579440 -122.556181 298 263ft 136kts
23-Jul-18 10:36 45.589085 -122.581231 283 33ft 18kts
23-Jul-18 10:37 45.587885 -122.583185 260 33ft 3kts
23-Jul-18 10:38 45.588436 -122.585026 295 33ft 7kts
23-Jul-18 10:39 45.588308 -122.585867 215 33ft 0kts
23-Jul-18 10:40 45.588308 -122.585867 215 33ft 0kts
23-Jul-18 10:41 45.588308 -122.585867 215 33ft 0kts
23-Jul-18 10:42 45.588308 -122.585867 215 33ft 0kts

Navigation Log

Ident Type
Flight plan parsing failed, navigation log unavailable